Time;durP1;ratioP1;P1;durP2;ratioP2;P2;SDS_P1;SDS_P2;PMS_P1;PMS_P2;Temp;Humidity;BMP_temperature;BMP_pressure;BME280_temperature;BME280_humidity;BME280_pressure;Samples;Min_cycle;Max_cycle;Signal;HPM_P1;HPM_P2
2022/03/02 00:00:47;;;;;;;38.80;21.48;;;-1.10;99.90;;;;;;5059850;28;20559;-43
2022/03/02 00:03:15;;;;;;;34.92;23.00;;;-0.90;99.90;;;;;;5059765;28;20227;-47
2022/03/02 00:05:42;;;;;;;43.53;23.85;;;-0.70;99.90;;;;;;5059600;28;20249;-49
2022/03/02 00:08:09;;;;;;;39.80;23.48;;;-0.70;99.90;;;;;;5059320;28;20203;-47
2022/03/02 00:10:36;;;;;;;45.58;24.40;;;-0.80;99.90;;;;;;5060206;28;20380;-43
2022/03/02 00:13:03;;;;;;;44.67;23.38;;;-0.80;99.90;;;;;;5059837;28;20231;-47
2022/03/02 00:15:30;;;;;;;43.20;23.27;;;-0.80;99.90;;;;;;5059617;28;20208;-44
2022/03/02 00:17:57;;;;;;;37.95;23.05;;;-0.80;99.90;;;;;;5059732;28;20211;-44
2022/03/02 00:20:24;;;;;;;43.60;22.80;;;-0.80;99.90;;;;;;5059586;28;20222;-46
2022/03/02 00:22:52;;;;;;;40.47;23.73;;;-0.80;99.90;;;;;;5059532;28;20500;-48
2022/03/02 00:25:22;;;;;;;46.15;23.92;;;-0.90;99.90;;;;;;5059576;28;20382;-44
2022/03/02 00:27:49;;;;;;;37.67;22.83;;;-0.90;99.90;;;;;;5060083;28;20199;-45
2022/03/02 00:30:16;;;;;;;37.90;22.30;;;-1.20;99.90;;;;;;5059235;28;20203;-46
2022/03/02 00:32:44;;;;;;;37.10;22.08;;;-1.10;99.90;;;;;;5059636;28;20220;-48
2022/03/02 00:35:11;;;;;;;33.63;22.05;;;-1.00;99.90;;;;;;5059470;28;20200;-48
2022/03/02 00:37:38;;;;;;;33.17;21.35;;;-1.10;99.90;;;;;;5059684;28;20502;-43
2022/03/02 00:40:07;;;;;;;36.53;21.40;;;-1.20;99.90;;;;;;5059956;28;20433;-44
2022/03/02 00:42:34;;;;;;;38.65;22.65;;;-1.40;99.90;;;;;;5059793;28;20227;-44
2022/03/02 00:45:01;;;;;;;45.20;23.75;;;-1.40;99.90;;;;;;5059427;28;20241;-45
2022/03/02 00:47:29;;;;;;;42.22;24.48;;;-1.60;99.90;;;;;;5059742;28;20568;-47
2022/03/02 00:49:56;;;;;;;36.90;22.30;;;-1.50;99.90;;;;;;5060122;28;20207;-42
2022/03/02 00:52:24;;;;;;;36.65;20.77;;;-1.50;99.90;;;;;;5059452;28;20546;-43
2022/03/02 00:54:51;;;;;;;36.13;21.90;;;-1.30;99.90;;;;;;5059457;28;20222;-47
2022/03/02 00:57:18;;;;;;;39.33;22.60;;;-1.40;99.90;;;;;;5059076;28;20230;-43
2022/03/02 00:59:45;;;;;;;36.90;24.27;;;-1.30;99.90;;;;;;5059170;28;20396;-43
2022/03/02 01:02:12;;;;;;;42.55;21.98;;;-1.40;99.90;;;;;;5058900;28;20223;-43
2022/03/02 01:04:40;;;;;;;46.65;23.60;;;-1.20;99.90;;;;;;5059263;28;20223;-44
2022/03/02 01:07:07;;;;;;;44.05;24.83;;;-1.20;99.90;;;;;;5058929;28;20196;-45
2022/03/02 01:09:34;;;;;;;37.13;21.58;;;-1.30;99.90;;;;;;5059101;28;20429;-43
2022/03/02 01:12:01;;;;;;;38.97;24.48;;;-1.50;99.90;;;;;;5058493;28;20227;-44
2022/03/02 01:14:28;;;;;;;39.20;23.60;;;-1.30;99.90;;;;;;5059117;28;20206;-45
2022/03/02 01:16:55;;;;;;;36.75;24.85;;;-1.10;99.90;;;;;;5059114;28;20200;-43
2022/03/02 01:19:22;;;;;;;36.17;23.20;;;-1.00;99.90;;;;;;5061680;28;20457;-45
2022/03/02 01:21:49;;;;;;;38.55;21.65;;;-1.10;99.90;;;;;;5063290;28;20227;-45
2022/03/02 01:24:16;;;;;;;38.95;24.15;;;-1.20;99.90;;;;;;5062852;28;20241;-44
2022/03/02 01:26:46;;;;;;;44.95;22.27;;;-1.30;99.90;;;;;;5062863;28;20196;-42
2022/03/02 01:29:13;;;;;;;39.28;24.20;;;-1.20;99.90;;;;;;5062829;28;20266;-42
2022/03/02 01:31:40;;;;;;;34.03;23.17;;;-1.20;99.90;;;;;;5063135;28;20218;-43
2022/03/02 01:34:07;;;;;;;40.08;24.05;;;-1.50;99.90;;;;;;5062683;28;20269;-43
2022/03/02 01:36:34;;;;;;;37.08;23.83;;;-1.50;99.90;;;;;;5062819;28;20232;-44
2022/03/02 01:39:02;;;;;;;51.47;25.33;;;-1.50;99.90;;;;;;5062865;28;20233;-44
2022/03/02 01:41:29;;;;;;;37.53;23.02;;;-1.60;99.90;;;;;;5062203;28;20245;-42
2022/03/02 01:43:56;;;;;;;37.65;22.63;;;-1.60;99.90;;;;;;5062730;28;20200;-42
2022/03/02 01:46:24;;;;;;;48.85;25.65;;;-1.90;99.90;;;;;;5061442;28;20195;-43
2022/03/02 01:48:52;;;;;;;45.80;26.08;;;-1.80;99.90;;;;;;5062679;28;20265;-48
2022/03/02 01:51:19;;;;;;;43.83;24.08;;;-1.80;99.90;;;;;;5062216;28;20238;-46
2022/03/02 01:53:46;;;;;;;41.22;27.00;;;-1.80;99.90;;;;;;5062841;28;20203;-42
2022/03/02 01:56:13;;;;;;;34.53;23.35;;;-1.70;99.90;;;;;;5062453;28;20203;-43
2022/03/02 01:58:41;;;;;;;39.00;23.63;;;-1.60;99.90;;;;;;5062874;28;20433;-42
2022/03/02 02:01:08;;;;;;;47.22;25.45;;;-1.70;99.90;;;;;;5062378;28;20257;-41
2022/03/02 02:03:35;;;;;;;37.20;24.60;;;-1.70;99.90;;;;;;5061823;28;20306;-43
2022/03/02 02:06:03;;;;;;;38.25;24.38;;;-1.90;99.90;;;;;;5062530;28;20196;-42
2022/03/02 02:08:31;;;;;;;34.92;23.23;;;-2.10;99.90;;;;;;5062084;28;20620;-44
2022/03/02 02:11:03;;;;;;;38.92;23.40;;;-1.90;99.90;;;;;;5062233;28;20493;-41
2022/03/02 02:13:32;;;;;;;44.15;23.80;;;-1.90;99.90;;;;;;5061807;28;20204;-41
2022/03/02 02:15:59;;;;;;;46.83;24.90;;;-1.80;99.90;;;;;;5062200;28;20279;-45
2022/03/02 02:18:27;;;;;;;34.15;22.92;;;-1.70;99.90;;;;;;5061702;28;20205;-42
2022/03/02 02:20:54;;;;;;;43.47;24.73;;;-1.50;99.90;;;;;;5062168;28;20204;-46
2022/03/02 02:23:21;;;;;;;38.97;23.08;;;-1.50;99.90;;;;;;5063299;28;20395;-44
2022/03/02 02:25:48;;;;;;;53.00;29.00;;;-1.50;99.90;;;;;;5063263;28;20246;-42
2022/03/02 02:28:22;;;;;;;35.92;23.65;;;-1.50;99.90;;;;;;5062810;28;20235;-45
2022/03/02 02:30:52;;;;;;;41.97;25.15;;;-1.50;99.90;;;;;;5062135;28;20544;-41
2022/03/02 02:33:19;;;;;;;39.22;27.08;;;-1.50;99.90;;;;;;5061315;28;20482;-42
2022/03/02 02:35:46;;;;;;;47.20;27.80;;;-1.60;99.90;;;;;;5061402;28;20206;-45
2022/03/02 02:38:15;;;;;;;48.65;26.70;;;-1.70;99.90;;;;;;5061621;28;20203;-43
2022/03/02 02:40:42;;;;;;;45.55;26.10;;;-1.70;99.90;;;;;;5061214;28;20257;-41
2022/03/02 02:43:10;;;;;;;37.45;22.92;;;-1.80;99.90;;;;;;5061853;28;20534;-41
2022/03/02 02:45:37;;;;;;;50.25;28.02;;;-1.80;99.90;;;;;;5061799;28;20233;-46
2022/03/02 02:48:04;;;;;;;46.30;28.13;;;-1.90;99.90;;;;;;5061235;28;20445;-45
2022/03/02 02:50:33;;;;;;;43.55;28.40;;;-1.90;99.90;;;;;;5061635;28;20238;-41
2022/03/02 02:53:04;;;;;;;41.83;24.10;;;-2.00;99.90;;;;;;5060801;28;20245;-42
2022/03/02 02:55:31;;;;;;;48.88;29.52;;;-2.10;99.90;;;;;;5061423;28;20452;-41
2022/03/02 02:57:59;;;;;;;44.08;28.20;;;-1.90;99.90;;;;;;5061515;28;20445;-40
2022/03/02 03:00:29;;;;;;;43.97;26.40;;;-2.00;99.90;;;;;;5061766;28;20266;-42
2022/03/02 03:02:57;;;;;;;44.85;27.25;;;-2.00;99.90;;;;;;5060901;28;20772;-42
2022/03/02 03:05:28;;;;;;;43.35;26.77;;;-1.90;99.90;;;;;;5061440;28;20201;-41
2022/03/02 03:07:56;;;;;;;47.63;27.45;;;-1.90;99.90;;;;;;5061307;28;20222;-43
2022/03/02 03:10:25;;;;;;;43.05;26.73;;;-2.00;99.90;;;;;;5060810;28;20506;-42
2022/03/02 03:12:53;;;;;;;54.90;27.90;;;-2.00;99.90;;;;;;5060897;28;20224;-40
2022/03/02 03:15:21;;;;;;;57.45;29.15;;;-2.00;99.90;;;;;;5061334;28;20203;-42
2022/03/02 03:17:50;;;;;;;43.63;25.35;;;-2.10;99.90;;;;;;5059862;28;20200;-42
2022/03/02 03:20:20;;;;;;;39.72;24.90;;;-2.10;99.90;;;;;;5061809;28;20269;-41
2022/03/02 03:22:47;;;;;;;56.17;27.95;;;-2.10;99.90;;;;;;5063427;28;20235;-41
2022/03/02 03:25:15;;;;;;;47.13;28.38;;;-2.10;99.90;;;;;;5061298;28;20199;-45
2022/03/02 03:27:43;;;;;;;46.35;27.48;;;-2.10;99.90;;;;;;5060754;28;20275;-40
2022/03/02 03:30:12;;;;;;;50.20;30.70;;;-2.10;99.90;;;;;;5061548;28;20436;-44
2022/03/02 03:32:40;;;;;;;48.85;26.00;;;-2.10;99.90;;;;;;5061311;28;20526;-40
2022/03/02 03:35:08;;;;;;;52.45;28.83;;;-2.20;99.90;;;;;;5061547;28;20223;-43
2022/03/02 03:37:36;;;;;;;46.95;30.38;;;-2.20;99.90;;;;;;5060352;28;20506;-42
2022/03/02 03:40:04;;;;;;;47.05;29.40;;;-2.30;99.90;;;;;;5060480;28;20199;-41
2022/03/02 03:42:31;;;;;;;50.28;28.85;;;-2.30;99.90;;;;;;5059882;28;20224;-41
2022/03/02 03:44:59;;;;;;;53.05;29.40;;;-2.30;99.90;;;;;;5060601;28;20200;-40
2022/03/02 03:47:26;;;;;;;49.05;28.88;;;-2.30;99.90;;;;;;5060131;28;20199;-41
2022/03/02 03:49:53;;;;;;;46.17;29.98;;;-2.30;99.90;;;;;;5060518;28;20207;-40
2022/03/02 03:52:20;;;;;;;53.25;30.25;;;-2.30;99.90;;;;;;5044382;28;20225;-43
2022/03/02 03:54:47;;;;;;;45.08;27.83;;;-2.30;99.90;;;;;;5045375;28;20212;-41
2022/03/02 03:57:14;;;;;;;44.38;28.90;;;-2.30;99.90;;;;;;5060064;28;20512;-41
2022/03/02 03:59:42;;;;;;;49.58;29.33;;;-2.20;99.90;;;;;;5060155;28;20199;-40
2022/03/02 04:02:09;;;;;;;45.97;30.17;;;-2.20;99.90;;;;;;5060154;28;20438;-42
2022/03/02 04:04:36;;;;;;;49.75;31.23;;;-2.30;99.90;;;;;;5059580;28;20518;-40
2022/03/02 04:07:03;;;;;;;49.83;30.63;;;-2.20;99.90;;;;;;5059826;28;20474;-43
2022/03/02 04:09:30;;;;;;;49.60;26.50;;;-2.30;99.90;;;;;;5060190;28;20444;-42
2022/03/02 04:11:58;;;;;;;57.70;28.45;;;-2.30;99.90;;;;;;5061489;28;20223;-46
2022/03/02 04:14:25;;;;;;;43.45;26.70;;;-2.40;99.90;;;;;;5061028;28;20253;-40
2022/03/02 04:16:51;;;;;;;48.00;27.85;;;-2.30;99.90;;;;;;5059858;28;20207;-40
2022/03/02 04:19:19;;;;;;;37.97;26.48;;;-2.30;99.90;;;;;;5059642;28;20219;-40
2022/03/02 04:21:46;;;;;;;36.83;24.23;;;-2.40;99.90;;;;;;5059250;28;20246;-41
2022/03/02 04:24:13;;;;;;;40.83;26.83;;;-2.50;99.90;;;;;;5059851;28;20235;-41
2022/03/02 04:26:40;;;;;;;51.35;26.92;;;-2.40;99.90;;;;;;5059476;28;20564;-42
2022/03/02 04:29:07;;;;;;;42.88;26.35;;;-2.60;99.90;;;;;;5060644;28;20441;-43
2022/03/02 04:31:34;;;;;;;44.03;26.23;;;-2.70;99.90;;;;;;5060545;28;20219;-43
2022/03/02 04:34:02;;;;;;;49.55;28.30;;;-2.80;99.90;;;;;;5060147;28;20203;-45
2022/03/02 04:36:29;;;;;;;52.70;29.15;;;-2.80;99.90;;;;;;5059789;28;20203;-44
2022/03/02 04:38:57;;;;;;;42.53;26.35;;;-2.80;99.90;;;;;;5059795;28;20203;-42
2022/03/02 04:41:25;;;;;;;55.92;29.33;;;-2.60;99.90;;;;;;5060470;28;20298;-40
2022/03/02 04:43:51;;;;;;;60.22;31.55;;;-2.50;99.90;;;;;;5060151;28;20603;-40
2022/03/02 04:46:19;;;;;;;47.38;27.00;;;-2.50;99.90;;;;;;5059932;28;20213;-40
2022/03/02 04:48:46;;;;;;;42.42;26.90;;;-2.30;99.90;;;;;;5059215;28;20211;-42
2022/03/02 04:51:13;;;;;;;45.25;27.63;;;-2.30;99.90;;;;;;5059920;28;20223;-45
2022/03/02 04:53:40;;;;;;;48.00;26.88;;;-2.60;99.90;;;;;;5058677;28;20201;-40
2022/03/02 04:56:08;;;;;;;45.67;25.20;;;-2.40;99.90;;;;;;5059595;28;20238;-41
2022/03/02 04:58:35;;;;;;;47.88;26.15;;;-2.40;99.90;;;;;;5059604;28;20237;-41
2022/03/02 05:01:03;;;;;;;50.15;26.35;;;-2.20;99.90;;;;;;5053835;28;20529;-42
2022/03/02 05:03:30;;;;;;;45.58;26.55;;;-2.20;99.90;;;;;;5050983;28;20220;-39
2022/03/02 05:05:57;;;;;;;34.90;23.60;;;-2.20;99.90;;;;;;5060007;28;20257;-40
2022/03/02 05:08:24;;;;;;;47.13;28.15;;;-2.10;99.90;;;;;;5061318;28;20196;-43
2022/03/02 05:10:52;;;;;;;55.33;26.70;;;-2.10;99.90;;;;;;5060738;28;20538;-41
2022/03/02 05:13:19;;;;;;;40.70;26.63;;;-2.10;99.90;;;;;;5060245;28;20325;-43
2022/03/02 05:15:47;;;;;;;42.85;26.73;;;-2.20;99.90;;;;;;5060031;28;20429;-40
2022/03/02 05:18:14;;;;;;;51.58;30.38;;;-2.20;99.90;;;;;;5058748;28;20204;-40
2022/03/02 05:20:41;;;;;;;46.63;29.35;;;-2.30;99.90;;;;;;5059153;28;20237;-41
2022/03/02 05:23:09;;;;;;;39.35;26.80;;;-2.30;99.90;;;;;;5057046;28;20300;-44
2022/03/02 05:25:36;;;;;;;45.60;26.58;;;-2.40;99.90;;;;;;5046939;28;20201;-40
2022/03/02 05:28:03;;;;;;;41.75;25.73;;;-2.40;99.90;;;;;;5057988;28;20293;-39
2022/03/02 05:30:31;;;;;;;43.92;27.10;;;-2.40;99.90;;;;;;5058553;28;20208;-45
2022/03/02 05:32:58;;;;;;;46.75;28.80;;;-2.40;99.90;;;;;;5049315;28;20248;-42
2022/03/02 05:35:25;;;;;;;39.28;27.27;;;-2.30;99.90;;;;;;5041059;28;20207;-43
2022/03/02 05:37:52;;;;;;;47.10;25.65;;;-2.40;99.90;;;;;;5042527;28;20243;-41
2022/03/02 05:40:21;;;;;;;50.22;27.38;;;-2.50;99.90;;;;;;5051515;28;20208;-45
2022/03/02 05:42:53;;;;;;;46.58;28.10;;;-2.30;99.90;;;;;;5057918;28;20500;-41
2022/03/02 05:45:21;;;;;;;41.10;27.08;;;-2.40;99.90;;;;;;5056553;28;20536;-41
2022/03/02 05:47:49;;;;;;;48.00;27.38;;;-2.30;99.90;;;;;;5062064;28;20218;-41
2022/03/02 05:50:16;;;;;;;46.75;25.85;;;-2.20;99.90;;;;;;5054406;28;20207;-43
2022/03/02 05:52:44;;;;;;;60.10;31.35;;;-2.10;99.90;;;;;;5062557;28;20445;-41
2022/03/02 05:55:11;;;;;;;51.70;30.90;;;-2.10;99.90;;;;;;5062256;28;20200;-40
2022/03/02 05:57:38;;;;;;;43.35;28.60;;;-2.20;99.90;;;;;;5059279;28;20205;-42
2022/03/02 06:00:08;;;;;;;54.40;27.95;;;-2.50;99.90;;;;;;5050142;28;20211;-38
2022/03/02 06:02:36;;;;;;;55.45;28.83;;;-2.50;99.90;;;;;;5041727;28;20546;-45
2022/03/02 06:05:04;;;;;;;62.47;30.42;;;-2.50;99.90;;;;;;5051776;28;20250;-42
2022/03/02 06:07:31;;;;;;;47.20;26.27;;;-2.50;99.90;;;;;;5062421;28;20204;-41
2022/03/02 06:09:59;;;;;;;49.55;27.10;;;-2.40;99.90;;;;;;5062219;28;20206;-42
2022/03/02 06:12:27;;;;;;;46.00;26.95;;;-2.40;99.90;;;;;;5060894;28;20237;-43
2022/03/02 06:14:54;;;;;;;46.40;28.20;;;-2.10;99.90;;;;;;5062204;28;20208;-40
2022/03/02 06:17:22;;;;;;;45.65;25.52;;;-2.00;99.90;;;;;;5061929;28;20272;-40
2022/03/02 06:19:49;;;;;;;41.80;27.60;;;-2.10;99.90;;;;;;5062023;28;20208;-43
2022/03/02 06:22:17;;;;;;;42.70;26.60;;;-2.10;99.90;;;;;;5061809;28;20228;-43
2022/03/02 06:24:44;;;;;;;38.33;23.52;;;-2.00;99.90;;;;;;5062559;28;20235;-40
2022/03/02 06:27:30;;;;;;;41.15;24.02;;;-1.90;99.90;;;;;;5062396;28;20183;-40
2022/03/02 06:29:57;;;;;;;43.95;25.52;;;-1.70;99.90;;;;;;5062035;28;20199;-44
2022/03/02 06:32:24;;;;;;;34.67;23.05;;;-1.20;99.90;;;;;;5062550;28;20215;-42
2022/03/02 06:34:52;;;;;;;34.72;24.45;;;-0.60;99.90;;;;;;5061894;28;20206;-40
2022/03/02 06:37:19;;;;;;;39.40;22.55;;;0.10;99.90;;;;;;5064220;28;20253;-43
2022/03/02 06:39:47;;;;;;;37.53;23.10;;;0.60;99.90;;;;;;5064975;28;20207;-41
2022/03/02 06:42:21;;;;;;;34.38;20.95;;;0.70;99.90;;;;;;5064267;28;20223;-43
2022/03/02 06:45:09;;;;;;;40.20;21.73;;;0.60;99.90;;;;;;5062531;28;20222;-42
2022/03/02 06:47:53;;;;;;;33.08;19.92;;;1.10;99.90;;;;;;5056532;28;20227;-44
2022/03/02 06:50:25;;;;;;;37.00;19.35;;;2.00;99.90;;;;;;5052023;28;20497;-42
2022/03/02 06:52:54;;;;;;;26.95;18.92;;;2.10;99.90;;;;;;5054502;28;20224;-40
2022/03/02 06:55:21;;;;;;;29.13;17.70;;;2.00;99.90;;;;;;5054925;28;20204;-44
2022/03/02 06:57:56;;;;;;;41.83;19.33;;;1.60;99.90;;;;;;5052627;28;20201;-43
2022/03/02 07:00:24;;;;;;;31.05;19.15;;;1.30;99.90;;;;;;5043502;28;20203;-45
2022/03/02 07:03:02;;;;;;;26.80;16.65;;;1.00;99.90;;;;;;5061843;28;20232;-44
2022/03/02 07:05:30;;;;;;;25.42;18.00;;;0.80;99.90;;;;;;5060926;28;20263;-41
2022/03/02 07:08:00;;;;;;;24.65;17.13;;;0.80;99.90;;;;;;5061071;28;20249;-41
2022/03/02 07:10:27;;;;;;;35.47;18.20;;;1.00;99.90;;;;;;5059922;28;20207;-41
2022/03/02 07:12:55;;;;;;;33.25;19.38;;;1.30;99.90;;;;;;5060922;28;20270;-41
2022/03/02 07:15:22;;;;;;;32.60;19.08;;;1.80;99.90;;;;;;5060810;28;20223;-45
2022/03/02 07:17:51;;;;;;;33.92;18.08;;;2.20;99.90;;;;;;5060125;28;20235;-44
2022/03/02 07:20:18;;;;;;;23.63;15.93;;;2.40;99.90;;;;;;5061048;28;20283;-45
2022/03/02 07:22:52;;;;;;;33.42;18.70;;;2.30;99.90;;;;;;5059386;28;20292;-42
2022/03/02 07:25:27;;;;;;;31.33;17.50;;;2.10;99.90;;;;;;5060709;28;20238;-45
2022/03/02 07:27:56;;;;;;;28.08;17.40;;;2.30;99.90;;;;;;5060866;28;20197;-41
2022/03/02 07:30:26;;;;;;;26.23;16.95;;;2.30;99.90;;;;;;5060315;28;20196;-43
2022/03/02 07:32:56;;;;;;;34.58;17.42;;;2.70;99.90;;;;;;5060920;28;20268;-42
2022/03/02 07:35:25;;;;;;;30.08;19.45;;;3.30;99.90;;;;;;5060191;28;20202;-42
2022/03/02 07:37:55;;;;;;;28.83;16.95;;;4.40;99.90;;;;;;5061334;28;20408;-41
2022/03/02 07:40:22;;;;;;;26.60;17.13;;;5.60;99.90;;;;;;5061921;28;20208;-40
2022/03/02 07:42:50;;;;;;;30.08;17.65;;;6.10;99.90;;;;;;5060505;28;20211;-42
2022/03/02 07:45:18;;;;;;;28.98;17.25;;;6.80;99.90;;;;;;5059291;28;20231;-47
2022/03/02 07:47:46;;;;;;;28.35;17.70;;;7.90;99.90;;;;;;5060758;28;20196;-45
2022/03/02 07:50:15;;;;;;;28.85;18.05;;;8.10;99.90;;;;;;5060218;28;20234;-45
2022/03/02 07:52:48;;;;;;;25.08;18.35;;;8.70;99.90;;;;;;5059669;28;20225;-42
2022/03/02 07:55:17;;;;;;;29.75;19.95;;;9.80;99.50;;;;;;5060448;28;20246;-41
2022/03/02 07:57:49;;;;;;;27.52;18.45;;;9.50;96.90;;;;;;5059946;28;20204;-41
2022/03/02 08:00:16;;;;;;;36.30;21.27;;;9.20;97.00;;;;;;5059743;28;20201;-42
2022/03/02 08:02:46;;;;;;;32.60;20.88;;;8.70;97.70;;;;;;5059853;28;20287;-43
2022/03/02 08:05:13;;;;;;;29.55;19.75;;;9.20;98.20;;;;;;5059756;28;20293;-49
2022/03/02 08:07:42;;;;;;;26.40;16.92;;;10.20;95.00;;;;;;5060064;28;20258;-44
2022/03/02 08:10:10;;;;;;;26.30;16.85;;;9.90;95.00;;;;;;5060078;28;20198;-46
2022/03/02 08:12:37;;;;;;;25.55;18.25;;;9.90;94.40;;;;;;5060230;28;20222;-42
2022/03/02 08:15:06;;;;;;;33.03;20.98;;;10.30;93.80;;;;;;5060714;28;20203;-48
2022/03/02 08:17:34;;;;;;;24.00;18.10;;;11.90;91.90;;;;;;5059749;28;20198;-44
2022/03/02 08:20:02;;;;;;;29.45;18.75;;;12.50;87.30;;;;;;5059705;28;20195;-44
2022/03/02 08:22:31;;;;;;;27.20;18.00;;;12.60;85.30;;;;;;5060095;28;20268;-42
2022/03/02 08:25:11;;;;;;;27.10;18.70;;;12.00;84.70;;;;;;5059507;28;20229;-42
2022/03/02 08:27:41;;;;;;;29.83;18.63;;;11.80;85.20;;;;;;5059228;28;20236;-44
2022/03/02 08:30:10;;;;;;;22.67;17.95;;;12.00;86.90;;;;;;5059269;28;20387;-42
2022/03/02 08:32:46;;;;;;;27.85;19.67;;;12.00;85.30;;;;;;5060979;28;20261;-42
2022/03/02 08:35:14;;;;;;;27.35;18.85;;;12.70;82.90;;;;;;5061202;28;20207;-47
2022/03/02 08:37:42;;;;;;;34.35;21.30;;;13.70;79.50;;;;;;5060908;28;20716;-42
2022/03/02 08:40:11;;;;;;;28.52;18.60;;;13.40;76.90;;;;;;5060561;28;20215;-41
2022/03/02 08:42:39;;;;;;;34.30;18.52;;;13.00;75.80;;;;;;5061528;28;20441;-43
2022/03/02 08:45:07;;;;;;;26.90;18.05;;;12.40;75.00;;;;;;5060944;28;20269;-43
2022/03/02 08:47:35;;;;;;;29.83;19.65;;;11.30;80.00;;;;;;5059204;28;20194;-45
2022/03/02 08:50:04;;;;;;;23.88;17.67;;;11.60;80.30;;;;;;5059217;28;20305;-42
2022/03/02 08:52:33;;;;;;;30.02;18.80;;;11.70;78.60;;;;;;5058638;28;20318;-44
2022/03/02 08:55:06;;;;;;;24.33;16.15;;;11.90;79.20;;;;;;5059300;28;20199;-46
2022/03/02 08:57:34;;;;;;;19.67;13.80;;;12.80;76.70;;;;;;5058822;28;20245;-47
2022/03/02 09:00:07;;;;;;;24.02;17.08;;;12.90;74.20;;;;;;5059177;28;20237;-44
2022/03/02 09:02:37;;;;;;;22.58;14.27;;;13.10;72.90;;;;;;5058855;28;20559;-44
2022/03/02 09:05:06;;;;;;;26.02;15.43;;;12.50;73.60;;;;;;5058855;28;20538;-44
2022/03/02 09:07:35;;;;;;;25.48;14.50;;;12.90;73.20;;;;;;5059482;28;20249;-43
2022/03/02 09:10:04;;;;;;;26.23;16.00;;;14.00;69.70;;;;;;5060618;28;20200;-42
2022/03/02 09:12:32;;;;;;;19.92;15.20;;;13.30;69.80;;;;;;5059230;28;20222;-42
2022/03/02 09:14:59;;;;;;;28.98;15.68;;;12.20;71.50;;;;;;5058006;28;20202;-47
2022/03/02 09:17:28;;;;;;;23.40;14.32;;;11.30;74.40;;;;;;5058919;28;20208;-47
2022/03/02 09:19:57;;;;;;;17.55;13.15;;;11.30;76.30;;;;;;5058888;28;20217;-45
2022/03/02 09:22:25;;;;;;;24.42;14.85;;;11.30;75.60;;;;;;5059048;28;20219;-43
2022/03/02 09:24:53;;;;;;;30.98;18.83;;;11.60;75.50;;;;;;5059099;28;20268;-44
2022/03/02 09:27:21;;;;;;;19.92;13.15;;;11.50;75.60;;;;;;5057924;28;20197;-42
2022/03/02 09:29:51;;;;;;;48.80;23.90;;;11.00;74.70;;;;;;5058934;28;20218;-43
2022/03/02 09:32:19;;;;;;;27.30;16.30;;;10.80;75.80;;;;;;5058696;28;20222;-48
2022/03/02 09:34:49;;;;;;;20.98;14.90;;;10.50;76.70;;;;;;5059020;28;20201;-50
2022/03/02 09:37:17;;;;;;;21.65;13.90;;;9.40;79.10;;;;;;5059121;28;20228;-47
2022/03/02 09:39:48;;;;;;;30.20;17.08;;;8.60;84.70;;;;;;5060806;28;20204;-44
2022/03/02 09:42:40;;;;;;;29.70;14.57;;;7.60;88.40;;;;;;5062823;28;20223;-48
2022/03/02 09:45:10;;;;;;;17.65;13.07;;;7.30;90.50;;;;;;5059769;28;20230;-44
2022/03/02 09:47:45;;;;;;;17.50;10.25;;;7.40;90.70;;;;;;5062674;28;20187;-48
2022/03/02 09:50:15;;;;;;;22.60;10.82;;;7.20;90.40;;;;;;5062489;28;20211;-48
2022/03/02 09:52:45;;;;;;;20.48;11.02;;;6.90;91.00;;;;;;5062265;28;20261;-46
2022/03/02 09:55:16;;;;;;;16.70;9.90;;;6.50;92.30;;;;;;5062543;28;20538;-46
2022/03/02 09:57:48;;;;;;;15.23;10.43;;;6.20;92.00;;;;;;5062406;28;20207;-45
2022/03/02 10:00:18;;;;;;;16.92;9.85;;;6.00;92.60;;;;;;5062550;28;20203;-47
2022/03/02 10:02:57;;;;;;;15.65;10.00;;;5.70;93.40;;;;;;5062195;28;20326;-46
2022/03/02 10:05:27;;;;;;;18.23;10.88;;;5.60;93.90;;;;;;5062058;28;20273;-50
2022/03/02 10:08:02;;;;;;;14.32;8.82;;;5.40;94.40;;;;;;5052107;28;20485;-49
2022/03/02 10:10:33;;;;;;;17.25;9.80;;;5.40;94.80;;;;;;5056135;28;20199;-45
2022/03/02 10:13:04;;;;;;;20.25;9.60;;;5.50;95.10;;;;;;5053528;28;20219;-45
2022/03/02 10:15:32;;;;;;;10.55;7.43;;;5.50;95.90;;;;;;5061678;28;20200;-44
2022/03/02 10:18:06;;;;;;;12.15;8.50;;;5.50;94.10;;;;;;5061293;28;20222;-47
2022/03/02 10:20:36;;;;;;;14.07;9.20;;;5.10;94.00;;;;;;5061760;28;20245;-47
2022/03/02 10:23:23;;;;;;;15.07;10.55;;;5.20;95.00;;;;;;5061801;28;20424;-45
2022/03/02 10:26:07;;;;;;;19.83;11.77;;;5.20;94.90;;;;;;5061806;28;20584;-47
2022/03/02 10:28:40;;;;;;;15.73;10.48;;;5.40;95.00;;;;;;5061598;28;20202;-47
2022/03/02 10:31:28;;;;;;;20.33;10.43;;;5.40;95.90;;;;;;5061828;28;20195;-47
2022/03/02 10:34:01;;;;;;;15.90;9.65;;;5.30;95.70;;;;;;5061846;28;20245;-45
2022/03/02 10:36:30;;;;;;;12.98;9.80;;;5.00;96.70;;;;;;5061049;28;20203;-44
2022/03/02 10:38:57;;;;;;;11.93;9.25;;;4.90;97.50;;;;;;5061931;28;20203;-45
2022/03/02 10:41:27;;;;;;;12.98;9.38;;;5.00;96.90;;;;;;5061102;28;20616;-45
2022/03/02 10:44:01;;;;;;;17.08;10.57;;;5.00;95.60;;;;;;5061852;28;20227;-47
2022/03/02 10:46:29;;;;;;;11.27;7.43;;;5.10;96.90;;;;;;5061047;28;20203;-45
2022/03/02 10:49:05;;;;;;;13.90;8.32;;;5.20;95.40;;;;;;5061177;28;20213;-47
2022/03/02 10:51:34;;;;;;;13.90;8.48;;;5.20;94.70;;;;;;5059716;28;20218;-48
2022/03/02 10:54:06;;;;;;;10.93;8.63;;;5.10;96.70;;;;;;5061235;28;20210;-49
2022/03/02 10:56:39;;;;;;;12.80;7.40;;;5.30;95.40;;;;;;5061006;28;20202;-46
2022/03/02 10:59:16;;;;;;;14.90;10.05;;;5.20;94.90;;;;;;5061122;28;20214;-49
2022/03/02 11:01:49;;;;;;;18.50;9.98;;;5.10;96.50;;;;;;5061477;28;20220;-44
2022/03/02 11:04:21;;;;;;;9.63;7.88;;;5.10;95.90;;;;;;5061388;28;20223;-43
2022/03/02 11:06:52;;;;;;;16.15;9.77;;;5.10;95.40;;;;;;5061428;28;20241;-47
2022/03/02 11:09:41;;;;;;;16.67;9.73;;;5.10;96.20;;;;;;5061058;28;20526;-44
2022/03/02 11:12:10;;;;;;;14.40;8.63;;;5.10;96.50;;;;;;5062564;28;20256;-44
2022/03/02 11:15:01;;;;;;;14.90;10.38;;;5.10;96.60;;;;;;5062418;28;20210;-45
2022/03/02 11:17:29;;;;;;;12.30;7.50;;;5.00;95.90;;;;;;5061160;28;20211;-45
2022/03/02 11:19:57;;;;;;;17.58;9.40;;;5.00;95.50;;;;;;5060649;28;20207;-47
2022/03/02 11:22:27;;;;;;;15.23;8.77;;;5.00;96.00;;;;;;5060490;28;20284;-49
2022/03/02 11:24:58;;;;;;;11.60;7.75;;;4.80;95.50;;;;;;5060480;28;20537;-50
2022/03/02 11:27:41;;;;;;;15.65;7.95;;;4.80;94.60;;;;;;5060528;28;20202;-47
2022/03/02 11:30:12;;;;;;;15.35;9.63;;;4.80;94.50;;;;;;5060883;28;20195;-48
2022/03/02 11:32:43;;;;;;;19.38;8.48;;;4.60;95.40;;;;;;5060708;28;20218;-44
2022/03/02 11:35:18;;;;;;;13.20;9.05;;;4.70;95.20;;;;;;5060784;28;20226;-45
2022/03/02 11:37:57;;;;;;;12.30;8.27;;;4.80;94.10;;;;;;5059498;28;20287;-46
2022/03/02 11:40:40;;;;;;;11.30;8.55;;;4.80;94.50;;;;;;5058277;28;20210;-47
2022/03/02 11:43:16;;;;;;;14.95;9.02;;;4.60;95.50;;;;;;5044664;28;20223;-46
2022/03/02 11:45:57;;;;;;;17.35;8.45;;;4.60;95.70;;;;;;5052225;28;20253;-45
2022/03/02 11:48:31;;;;;;;19.40;10.25;;;4.70;96.60;;;;;;5059557;28;20211;-46
2022/03/02 11:51:07;;;;;;;15.25;9.23;;;5.00;95.40;;;;;;5060588;28;20198;-44
2022/03/02 11:53:38;;;;;;;12.80;8.05;;;5.40;95.00;;;;;;5059434;28;20265;-44
2022/03/02 11:56:08;;;;;;;15.35;8.70;;;5.70;95.00;;;;;;5060068;28;20199;-47
2022/03/02 11:59:02;;;;;;;17.35;10.13;;;5.90;94.40;;;;;;5059411;28;20260;-45
2022/03/02 12:01:51;;;;;;;11.90;8.57;;;6.10;93.40;;;;;;5060034;28;20549;-48
2022/03/02 12:04:30;;;;;;;14.50;9.15;;;5.90;94.20;;;;;;5059356;28;20579;-49
2022/03/02 12:06:59;;;;;;;15.15;10.00;;;5.90;94.20;;;;;;5060087;28;20198;-46
2022/03/02 12:09:33;;;;;;;12.77;8.98;;;6.00;94.50;;;;;;5059097;28;20506;-46
2022/03/02 12:12:21;;;;;;;9.15;6.90;;;6.10;94.50;;;;;;5060003;28;20215;-49
2022/03/02 12:14:57;;;;;;;10.45;7.00;;;6.30;94.10;;;;;;5059730;28;20239;-46
2022/03/02 12:17:36;;;;;;;12.93;8.82;;;6.30;93.80;;;;;;5059070;28;20219;-49
2022/03/02 12:20:11;;;;;;;17.80;9.80;;;6.10;94.00;;;;;;5059605;28;20199;-46
2022/03/02 12:22:41;;;;;;;12.75;8.15;;;5.90;94.80;;;;;;5059696;28;20265;-47
2022/03/02 12:25:10;;;;;;;14.80;9.57;;;5.80;95.10;;;;;;5059554;28;20245;-50
2022/03/02 12:27:39;;;;;;;16.80;9.68;;;5.80;95.10;;;;;;5059154;28;20202;-47
2022/03/02 12:30:11;;;;;;;14.98;9.68;;;5.80;94.90;;;;;;5060023;28;20586;-47
2022/03/02 12:32:41;;;;;;;17.30;9.13;;;5.60;95.00;;;;;;5059838;28;20219;-48
2022/03/02 12:35:11;;;;;;;13.82;8.70;;;5.50;95.60;;;;;;5060117;28;20350;-45
2022/03/02 12:37:39;;;;;;;13.27;9.10;;;5.80;95.60;;;;;;5059592;28;20592;-50
2022/03/02 12:40:10;;;;;;;12.75;8.55;;;5.90;95.30;;;;;;5059626;28;20203;-46
2022/03/02 12:42:43;;;;;;;11.13;8.65;;;6.00;95.20;;;;;;5059343;28;20297;-51
2022/03/02 12:45:11;;;;;;;14.23;9.07;;;6.30;94.70;;;;;;5059369;28;20225;-46